sensor_id;sensor_type;location;lat;lon;timestamp;pressure;altitude;pressure_sealevel;temperature;humidity
51617;BME280;37697;52.588;13.394;2023-11-21T00:01:19;100347.85;;;6.29;100.00
51617;BME280;37697;52.588;13.394;2023-11-21T00:06:45;100351.13;;;6.22;100.00
51617;BME280;37697;52.588;13.394;2023-11-21T00:12:07;100355.06;;;6.21;100.00
51617;BME280;37697;52.588;13.394;2023-11-21T00:17:36;100361.95;;;6.13;100.00
51617;BME280;37697;52.588;13.394;2023-11-21T00:23:02;100364.52;;;6.02;100.00
51617;BME280;37697;52.588;13.394;2023-11-21T00:28:28;100372.42;;;5.96;100.00
51617;BME280;37697;52.588;13.394;2023-11-21T00:33:54;100384.11;;;5.85;100.00
51617;BME280;37697;52.588;13.394;2023-11-21T00:39:20;100385.11;;;5.78;100.00
51617;BME280;37697;52.588;13.394;2023-11-21T00:44:45;100385.81;;;5.70;100.00
51617;BME280;37697;52.588;13.394;2023-11-21T00:50:12;100392.20;;;5.65;100.00
51617;BME280;37697;52.588;13.394;2023-11-21T00:55:38;100394.80;;;5.59;100.00
51617;BME280;37697;52.588;13.394;2023-11-21T01:01:04;100399.36;;;5.54;100.00
51617;BME280;37697;52.588;13.394;2023-11-21T01:06:30;100403.06;;;5.55;100.00
51617;BME280;37697;52.588;13.394;2023-11-21T01:11:56;100409.30;;;5.50;100.00
51617;BME280;37697;52.588;13.394;2023-11-21T01:17:21;100418.12;;;5.45;100.00
51617;BME280;37697;52.588;13.394;2023-11-21T01:22:47;100426.42;;;5.38;100.00
51617;BME280;37697;52.588;13.394;2023-11-21T01:28:13;100440.48;;;5.33;100.00
51617;BME280;37697;52.588;13.394;2023-11-21T01:33:39;100447.64;;;5.30;100.00
51617;BME280;37697;52.588;13.394;2023-11-21T01:39:05;100448.90;;;5.28;100.00
51617;BME280;37697;52.588;13.394;2023-11-21T01:44:32;100454.69;;;5.23;100.00
51617;BME280;37697;52.588;13.394;2023-11-21T01:49:57;100450.75;;;5.19;100.00
51617;BME280;37697;52.588;13.394;2023-11-21T01:55:24;100459.48;;;5.19;100.00
51617;BME280;37697;52.588;13.394;2023-11-21T02:00:49;100462.28;;;5.12;100.00
51617;BME280;37697;52.588;13.394;2023-11-21T02:06:16;100466.21;;;5.04;100.00
51617;BME280;37697;52.588;13.394;2023-11-21T02:11:42;100471.99;;;5.04;100.00
51617;BME280;37697;52.588;13.394;2023-11-21T02:17:07;100476.53;;;5.04;100.00
51617;BME280;37697;52.588;13.394;2023-11-21T02:22:35;100473.80;;;5.10;100.00
51617;BME280;37697;52.588;13.394;2023-11-21T02:28:06;100477.35;;;5.05;100.00
51617;BME280;37697;52.588;13.394;2023-11-21T02:33:32;100485.87;;;5.05;100.00
51617;BME280;37697;52.588;13.394;2023-11-21T02:38:58;100486.20;;;5.07;100.00
51617;BME280;37697;52.588;13.394;2023-11-21T02:44:24;100491.98;;;5.03;100.00
51617;BME280;37697;52.588;13.394;2023-11-21T02:49:42;100495.90;;;4.97;100.00
51617;BME280;37697;52.588;13.394;2023-11-21T02:55:10;100496.60;;;4.85;100.00
51617;BME280;37697;52.588;13.394;2023-11-21T03:00:36;100500.20;;;4.82;100.00
51617;BME280;37697;52.588;13.394;2023-11-21T03:06:02;100497.20;;;4.84;100.00
51617;BME280;37697;52.588;13.394;2023-11-21T03:11:28;100500.48;;;4.82;100.00
51617;BME280;37697;52.588;13.394;2023-11-21T03:16:55;100500.24;;;4.77;100.00
51617;BME280;37697;52.588;13.394;2023-11-21T03:22:22;100509.62;;;4.70;100.00
51617;BME280;37697;52.588;13.394;2023-11-21T03:27:48;100516.97;;;4.65;100.00
51617;BME280;37697;52.588;13.394;2023-11-21T03:33:13;100530.77;;;4.65;100.00
51617;BME280;37697;52.588;13.394;2023-11-21T03:38:39;100539.86;;;4.59;100.00
51617;BME280;37697;52.588;13.394;2023-11-21T03:44:05;100546.06;;;4.54;100.00
51617;BME280;37697;52.588;13.394;2023-11-21T03:49:31;100544.75;;;4.48;100.00
51617;BME280;37697;52.588;13.394;2023-11-21T03:54:57;100550.69;;;4.49;100.00
51617;BME280;37697;52.588;13.394;2023-11-21T04:00:23;100554.89;;;4.45;100.00
51617;BME280;37697;52.588;13.394;2023-11-21T04:05:49;100558.96;;;4.44;100.00
51617;BME280;37697;52.588;13.394;2023-11-21T04:11:15;100567.84;;;4.42;100.00
51617;BME280;37697;52.588;13.394;2023-11-21T04:16:41;100576.66;;;4.38;100.00
51617;BME280;37697;52.588;13.394;2023-11-21T04:22:07;100584.06;;;4.37;100.00
51617;BME280;37697;52.588;13.394;2023-11-21T04:27:33;100590.67;;;4.37;100.00
51617;BME280;37697;52.588;13.394;2023-11-21T04:32:59;100598.88;;;4.30;100.00
51617;BME280;37697;52.588;13.394;2023-11-21T04:38:24;100600.70;;;4.28;100.00
51617;BME280;37697;52.588;13.394;2023-11-21T04:43:50;100604.02;;;4.25;100.00
51617;BME280;37697;52.588;13.394;2023-11-21T04:49:16;100611.33;;;4.26;100.00
51617;BME280;37697;52.588;13.394;2023-11-21T04:54:42;100618.03;;;4.23;100.00
51617;BME280;37697;52.588;13.394;2023-11-21T05:00:10;100620.49;;;4.16;100.00
51617;BME280;37697;52.588;13.394;2023-11-21T05:05:36;100626.19;;;4.11;100.00
51617;BME280;37697;52.588;13.394;2023-11-21T05:11:02;100634.42;;;4.12;100.00
51617;BME280;37697;52.588;13.394;2023-11-21T05:16:22;100639.84;;;4.07;100.00
51617;BME280;37697;52.588;13.394;2023-11-21T05:21:48;100650.89;;;4.06;100.00
51617;BME280;37697;52.588;13.394;2023-11-21T05:27:14;100653.27;;;4.03;100.00
51617;BME280;37697;52.588;13.394;2023-11-21T05:32:40;100658.62;;;3.96;100.00
51617;BME280;37697;52.588;13.394;2023-11-21T05:38:06;100661.85;;;3.91;100.00
51617;BME280;37697;52.588;13.394;2023-11-21T05:43:34;100671.91;;;3.88;100.00
51617;BME280;37697;52.588;13.394;2023-11-21T05:48:59;100680.79;;;3.83;100.00
51617;BME280;37697;52.588;13.394;2023-11-21T05:54:25;100688.03;;;3.80;100.00
51617;BME280;37697;52.588;13.394;2023-11-21T05:59:51;100693.02;;;3.80;100.00
51617;BME280;37697;52.588;13.394;2023-11-21T06:05:19;100702.09;;;3.81;100.00
51617;BME280;37697;52.588;13.394;2023-11-21T06:10:45;100709.96;;;3.76;100.00
51617;BME280;37697;52.588;13.394;2023-11-21T06:16:11;100707.83;;;3.71;100.00
51617;BME280;37697;52.588;13.394;2023-11-21T06:21:37;100722.08;;;3.68;100.00
51617;BME280;37697;52.588;13.394;2023-11-21T06:27:04;100733.65;;;3.65;100.00
51617;BME280;37697;52.588;13.394;2023-11-21T06:32:30;100735.81;;;3.63;100.00
51617;BME280;37697;52.588;13.394;2023-11-21T06:37:56;100756.34;;;3.63;100.00
51617;BME280;37697;52.588;13.394;2023-11-21T06:43:22;100764.64;;;3.64;100.00
51617;BME280;37697;52.588;13.394;2023-11-21T06:48:48;100775.08;;;3.63;100.00
51617;BME280;37697;52.588;13.394;2023-11-21T06:54:14;100779.53;;;3.61;100.00
51617;BME280;37697;52.588;13.394;2023-11-21T06:59:39;100784.27;;;3.61;100.00
51617;BME280;37697;52.588;13.394;2023-11-21T07:05:06;100786.56;;;3.60;100.00
51617;BME280;37697;52.588;13.394;2023-11-21T07:10:31;100787.55;;;3.62;100.00
51617;BME280;37697;52.588;13.394;2023-11-21T07:15:55;100794.05;;;3.59;100.00
51617;BME280;37697;52.588;13.394;2023-11-21T07:21:21;100801.52;;;3.55;100.00
51617;BME280;37697;52.588;13.394;2023-11-21T07:26:47;100800.08;;;3.57;100.00
51617;BME280;37697;52.588;13.394;2023-11-21T07:32:13;100800.72;;;3.60;100.00
51617;BME280;37697;52.588;13.394;2023-11-21T07:37:39;100809.27;;;3.61;100.00
51617;BME280;37697;52.588;13.394;2023-11-21T07:43:04;100817.58;;;3.59;100.00
51617;BME280;37697;52.588;13.394;2023-11-21T07:48:30;100821.77;;;3.58;100.00
51617;BME280;37697;52.588;13.394;2023-11-21T07:53:56;100822.94;;;3.60;100.00
51617;BME280;37697;52.588;13.394;2023-11-21T07:59:22;100826.77;;;3.57;100.00
51617;BME280;37697;52.588;13.394;2023-11-21T08:04:48;100838.75;;;3.53;100.00
51617;BME280;37697;52.588;13.394;2023-11-21T08:10:20;100851.11;;;3.52;100.00
51617;BME280;37697;52.588;13.394;2023-11-21T08:15:45;100860.94;;;3.51;100.00
51617;BME280;37697;52.588;13.394;2023-11-21T08:21:13;100859.92;;;3.51;100.00
51617;BME280;37697;52.588;13.394;2023-11-21T08:26:39;100864.28;;;3.52;100.00
51617;BME280;37697;52.588;13.394;2023-11-21T08:32:07;100867.52;;;3.53;100.00
51617;BME280;37697;52.588;13.394;2023-11-21T08:37:33;100874.75;;;3.57;100.00
51617;BME280;37697;52.588;13.394;2023-11-21T08:42:59;100881.40;;;3.66;100.00
51617;BME280;37697;52.588;13.394;2023-11-21T08:48:25;100884.71;;;3.70;100.00
51617;BME280;37697;52.588;13.394;2023-11-21T08:53:50;100895.52;;;3.68;100.00
51617;BME280;37697;52.588;13.394;2023-11-21T08:59:16;100901.09;;;3.63;100.00
51617;BME280;37697;52.588;13.394;2023-11-21T09:04:42;100908.72;;;3.59;100.00
51617;BME280;37697;52.588;13.394;2023-11-21T09:10:10;100917.80;;;3.54;100.00
51617;BME280;37697;52.588;13.394;2023-11-21T09:15:36;100924.55;;;3.54;100.00
51617;BME280;37697;52.588;13.394;2023-11-21T09:21:01;100937.34;;;3.49;100.00
51617;BME280;37697;52.588;13.394;2023-11-21T09:26:27;100947.38;;;3.50;100.00
51617;BME280;37697;52.588;13.394;2023-11-21T09:31:53;100947.80;;;3.55;100.00
51617;BME280;37697;52.588;13.394;2023-11-21T09:37:18;100955.05;;;3.57;100.00
51617;BME280;37697;52.588;13.394;2023-11-21T09:42:51;100964.61;;;3.60;100.00
51617;BME280;37697;52.588;13.394;2023-11-21T09:48:18;100974.29;;;3.58;100.00
51617;BME280;37697;52.588;13.394;2023-11-21T09:53:45;100977.47;;;3.56;100.00
51617;BME280;37697;52.588;13.394;2023-11-21T09:59:20;100984.98;;;3.59;100.00
51617;BME280;37697;52.588;13.394;2023-11-21T10:04:46;100984.73;;;3.54;100.00
51617;BME280;37697;52.588;13.394;2023-11-21T10:10:12;100986.03;;;3.50;100.00
51617;BME280;37697;52.588;13.394;2023-11-21T10:15:35;100987.44;;;3.46;100.00
51617;BME280;37697;52.588;13.394;2023-11-21T10:21:01;100991.91;;;3.46;100.00
51617;BME280;37697;52.588;13.394;2023-11-21T10:26:29;100993.00;;;3.38;100.00
51617;BME280;37697;52.588;13.394;2023-11-21T10:31:58;100997.38;;;3.36;100.00
51617;BME280;37697;52.588;13.394;2023-11-21T10:37:25;100995.50;;;3.32;100.00
51617;BME280;37697;52.588;13.394;2023-11-21T10:42:51;101009.26;;;3.29;100.00
51617;BME280;37697;52.588;13.394;2023-11-21T10:48:17;101016.20;;;3.28;100.00
51617;BME280;37697;52.588;13.394;2023-11-21T10:53:43;101020.59;;;3.27;100.00
51617;BME280;37697;52.588;13.394;2023-11-21T10:59:11;101026.27;;;3.21;100.00
51617;BME280;37697;52.588;13.394;2023-11-21T11:04:38;101032.77;;;3.13;100.00
51617;BME280;37697;52.588;13.394;2023-11-21T11:10:06;101028.98;;;3.07;100.00
51617;BME280;37697;52.588;13.394;2023-11-21T11:15:32;101036.95;;;3.02;100.00
51617;BME280;37697;52.588;13.394;2023-11-21T11:21:01;101040.70;;;2.96;100.00
51617;BME280;37697;52.588;13.394;2023-11-21T11:26:41;101044.27;;;2.91;100.00
51617;BME280;37697;52.588;13.394;2023-11-21T11:32:16;101051.98;;;2.90;100.00
51617;BME280;37697;52.588;13.394;2023-11-21T11:37:47;101060.94;;;2.95;100.00
51617;BME280;37697;52.588;13.394;2023-11-21T11:43:13;101069.20;;;3.02;100.00
51617;BME280;37697;52.588;13.394;2023-11-21T11:49:04;101075.54;;;3.05;100.00
51617;BME280;37697;52.588;13.394;2023-11-21T11:54:37;101084.23;;;3.04;100.00
51617;BME280;37697;52.588;13.394;2023-11-21T12:00:17;101098.17;;;3.00;100.00
51617;BME280;37697;52.588;13.394;2023-11-21T12:05:53;101106.67;;;2.96;100.00
51617;BME280;37697;52.588;13.394;2023-11-21T12:11:19;101107.83;;;2.89;100.00
51617;BME280;37697;52.588;13.394;2023-11-21T12:16:47;101110.45;;;2.84;100.00
51617;BME280;37697;52.588;13.394;2023-11-21T12:22:13;101119.23;;;2.85;100.00
51617;BME280;37697;52.588;13.394;2023-11-21T12:27:38;101129.39;;;2.81;100.00
51617;BME280;37697;52.588;13.394;2023-11-21T12:33:05;101138.00;;;2.82;100.00
51617;BME280;37697;52.588;13.394;2023-11-21T12:38:36;101144.33;;;2.88;100.00
51617;BME280;37697;52.588;13.394;2023-11-21T12:44:01;101148.69;;;2.89;100.00
51617;BME280;37697;52.588;13.394;2023-11-21T12:49:27;101150.80;;;2.90;100.00
51617;BME280;37697;52.588;13.394;2023-11-21T12:54:53;101154.23;;;2.83;100.00
51617;BME280;37697;52.588;13.394;2023-11-21T13:00:20;101155.30;;;2.77;100.00
51617;BME280;37697;52.588;13.394;2023-11-21T13:05:49;101171.30;;;2.74;100.00
51617;BME280;37697;52.588;13.394;2023-11-21T13:11:18;101174.87;;;2.68;100.00
51617;BME280;37697;52.588;13.394;2023-11-21T13:16:44;101182.95;;;2.67;100.00
51617;BME280;37697;52.588;13.394;2023-11-21T13:22:10;101194.30;;;2.62;100.00
51617;BME280;37697;52.588;13.394;2023-11-21T13:27:36;101198.96;;;2.55;100.00
51617;BME280;37697;52.588;13.394;2023-11-21T13:33:02;101201.48;;;2.46;100.00
51617;BME280;37697;52.588;13.394;2023-11-21T13:38:29;101205.38;;;2.43;100.00
51617;BME280;37697;52.588;13.394;2023-11-21T13:43:54;101212.60;;;2.37;100.00
51617;BME280;37697;52.588;13.394;2023-11-21T13:49:20;101225.86;;;2.37;100.00
51617;BME280;37697;52.588;13.394;2023-11-21T13:54:46;101235.23;;;2.33;100.00
51617;BME280;37697;52.588;13.394;2023-11-21T14:00:14;101242.54;;;2.22;100.00
51617;BME280;37697;52.588;13.394;2023-11-21T14:05:39;101259.60;;;2.12;100.00
51617;BME280;37697;52.588;13.394;2023-11-21T14:11:06;101273.42;;;2.05;100.00
51617;BME280;37697;52.588;13.394;2023-11-21T14:16:41;101280.48;;;1.98;100.00
51617;BME280;37697;52.588;13.394;2023-11-21T14:22:07;101292.02;;;1.95;100.00
51617;BME280;37697;52.588;13.394;2023-11-21T14:27:33;101308.91;;;1.88;100.00
51617;BME280;37697;52.588;13.394;2023-11-21T14:32:53;101314.18;;;1.82;100.00
51617;BME280;37697;52.588;13.394;2023-11-21T14:38:19;101311.99;;;1.74;100.00
51617;BME280;37697;52.588;13.394;2023-11-21T14:43:45;101309.38;;;1.67;100.00
51617;BME280;37697;52.588;13.394;2023-11-21T14:49:02;101323.29;;;1.61;100.00
51617;BME280;37697;52.588;13.394;2023-11-21T14:54:29;101335.27;;;1.55;100.00
51617;BME280;37697;52.588;13.394;2023-11-21T15:00:10;101334.27;;;1.48;100.00
51617;BME280;37697;52.588;13.394;2023-11-21T15:05:35;101349.27;;;1.47;100.00
51617;BME280;37697;52.588;13.394;2023-11-21T15:11:01;101358.23;;;1.46;100.00
51617;BME280;37697;52.588;13.394;2023-11-21T15:16:22;101361.20;;;1.49;100.00
51617;BME280;37697;52.588;13.394;2023-11-21T15:21:48;101364.39;;;1.53;100.00
51617;BME280;37697;52.588;13.394;2023-11-21T15:27:14;101373.30;;;1.58;100.00
51617;BME280;37697;52.588;13.394;2023-11-21T15:32:35;101380.59;;;1.56;100.00
51617;BME280;37697;52.588;13.394;2023-11-21T15:38:00;101392.51;;;1.51;100.00
51617;BME280;37697;52.588;13.394;2023-11-21T15:43:26;101403.67;;;1.45;100.00
51617;BME280;37697;52.588;13.394;2023-11-21T15:48:52;101404.08;;;1.40;100.00
51617;BME280;37697;52.588;13.394;2023-11-21T15:54:18;101411.66;;;1.37;100.00
51617;BME280;37697;52.588;13.394;2023-11-21T15:59:26;101415.90;;;1.38;100.00
51617;BME280;37697;52.588;13.394;2023-11-21T16:04:52;101417.64;;;1.33;100.00
51617;BME280;37697;52.588;13.394;2023-11-21T16:10:11;101429.08;;;1.32;100.00
51617;BME280;37697;52.588;13.394;2023-11-21T16:15:21;101433.86;;;1.27;100.00
51617;BME280;37697;52.588;13.394;2023-11-21T16:20:36;101443.23;;;1.28;100.00
51617;BME280;37697;52.588;13.394;2023-11-21T16:26:02;101455.23;;;1.36;100.00
51617;BME280;37697;52.588;13.394;2023-11-21T16:31:28;101475.39;;;1.33;100.00
51617;BME280;37697;52.588;13.394;2023-11-21T16:36:44;101489.59;;;1.27;100.00
51617;BME280;37697;52.588;13.394;2023-11-21T16:42:05;101499.42;;;1.24;100.00
51617;BME280;37697;52.588;13.394;2023-11-21T16:47:10;101509.08;;;1.22;100.00
51617;BME280;37697;52.588;13.394;2023-11-21T16:52:29;101507.27;;;1.20;100.00
51617;BME280;37697;52.588;13.394;2023-11-21T16:57:55;101513.45;;;1.20;100.00
51617;BME280;37697;52.588;13.394;2023-11-21T17:03:21;101522.83;;;1.16;100.00
51617;BME280;37697;52.588;13.394;2023-11-21T17:08:47;101541.49;;;1.16;100.00
51617;BME280;37697;52.588;13.394;2023-11-21T17:14:13;101549.73;;;1.14;100.00
51617;BME280;37697;52.588;13.394;2023-11-21T17:19:39;101551.63;;;1.07;100.00
51617;BME280;37697;52.588;13.394;2023-11-21T17:25:06;101556.80;;;1.01;100.00
51617;BME280;37697;52.588;13.394;2023-11-21T17:30:32;101569.90;;;0.97;100.00
51617;BME280;37697;52.588;13.394;2023-11-21T17:35:58;101584.26;;;0.97;100.00
51617;BME280;37697;52.588;13.394;2023-11-21T17:41:24;101592.15;;;0.94;100.00
51617;BME280;37697;52.588;13.394;2023-11-21T17:46:50;101593.32;;;0.93;100.00
51617;BME280;37697;52.588;13.394;2023-11-21T17:52:16;101605.80;;;0.86;100.00
51617;BME280;37697;52.588;13.394;2023-11-21T17:57:34;101617.44;;;0.79;100.00
51617;BME280;37697;52.588;13.394;2023-11-21T18:02:59;101627.66;;;0.80;100.00
51617;BME280;37697;52.588;13.394;2023-11-21T18:08:26;101649.48;;;0.79;100.00
51617;BME280;37697;52.588;13.394;2023-11-21T18:13:52;101647.61;;;0.78;100.00
51617;BME280;37697;52.588;13.394;2023-11-21T18:19:11;101655.05;;;0.75;100.00
51617;BME280;37697;52.588;13.394;2023-11-21T18:24:37;101666.61;;;0.72;100.00
51617;BME280;37697;52.588;13.394;2023-11-21T18:29:59;101671.25;;;0.70;100.00
51617;BME280;37697;52.588;13.394;2023-11-21T18:35:25;101678.45;;;0.65;100.00
51617;BME280;37697;52.588;13.394;2023-11-21T18:40:50;101685.79;;;0.66;100.00
51617;BME280;37697;52.588;13.394;2023-11-21T18:46:06;101691.60;;;0.62;100.00
51617;BME280;37697;52.588;13.394;2023-11-21T18:51:32;101704.23;;;0.58;100.00
51617;BME280;37697;52.588;13.394;2023-11-21T18:56:58;101708.72;;;0.60;100.00
51617;BME280;37697;52.588;13.394;2023-11-21T19:02:04;101719.85;;;0.57;100.00
51617;BME280;37697;52.588;13.394;2023-11-21T19:07:18;101729.73;;;0.58;100.00
51617;BME280;37697;52.588;13.394;2023-11-21T19:12:35;101739.90;;;0.60;100.00
51617;BME280;37697;52.588;13.394;2023-11-21T19:17:51;101745.66;;;0.60;100.00
51617;BME280;37697;52.588;13.394;2023-11-21T19:23:17;101754.79;;;0.62;100.00
51617;BME280;37697;52.588;13.394;2023-11-21T19:28:25;101765.89;;;0.59;100.00
51617;BME280;37697;52.588;13.394;2023-11-21T19:33:43;101778.45;;;0.60;100.00
51617;BME280;37697;52.588;13.394;2023-11-21T19:38:59;101785.13;;;0.57;100.00
51617;BME280;37697;52.588;13.394;2023-11-21T19:44:24;101794.61;;;0.51;100.00
51617;BME280;37697;52.588;13.394;2023-11-21T19:49:50;101799.35;;;0.51;100.00
51617;BME280;37697;52.588;13.394;2023-11-21T19:55:00;101804.95;;;0.47;100.00
51617;BME280;37697;52.588;13.394;2023-11-21T20:00:19;101816.05;;;0.44;100.00
51617;BME280;37697;52.588;13.394;2023-11-21T20:05:25;101810.09;;;0.43;100.00
51617;BME280;37697;52.588;13.394;2023-11-21T20:10:44;101810.45;;;0.40;100.00
51617;BME280;37697;52.588;13.394;2023-11-21T20:15:52;101809.63;;;0.36;100.00
51617;BME280;37697;52.588;13.394;2023-11-21T20:21:21;101816.66;;;0.35;100.00
51617;BME280;37697;52.588;13.394;2023-11-21T20:26:40;101832.59;;;0.34;100.00
51617;BME280;37697;52.588;13.394;2023-11-21T20:32:06;101842.85;;;0.27;100.00
51617;BME280;37697;52.588;13.394;2023-11-21T20:37:20;101848.35;;;0.24;100.00
51617;BME280;37697;52.588;13.394;2023-11-21T20:42:35;101852.52;;;0.22;100.00
51617;BME280;37697;52.588;13.394;2023-11-21T20:48:01;101860.80;;;0.20;100.00
51617;BME280;37697;52.588;13.394;2023-11-21T20:53:27;101867.10;;;0.17;100.00
51617;BME280;37697;52.588;13.394;2023-11-21T20:58:49;101876.52;;;0.16;100.00
51617;BME280;37697;52.588;13.394;2023-11-21T21:04:15;101881.48;;;0.14;100.00
51617;BME280;37697;52.588;13.394;2023-11-21T21:09:41;101878.09;;;0.12;100.00
51617;BME280;37697;52.588;13.394;2023-11-21T21:15:09;101881.75;;;0.08;100.00
51617;BME280;37697;52.588;13.394;2023-11-21T21:20:35;101889.52;;;0.04;100.00
51617;BME280;37697;52.588;13.394;2023-11-21T21:26:01;101890.27;;;-0.01;100.00
51617;BME280;37697;52.588;13.394;2023-11-21T21:31:27;101893.56;;;-0.05;100.00
51617;BME280;37697;52.588;13.394;2023-11-21T21:36:52;101905.40;;;-0.15;100.00
51617;BME280;37697;52.588;13.394;2023-11-21T21:42:18;101910.67;;;-0.22;100.00
51617;BME280;37697;52.588;13.394;2023-11-21T21:47:44;101918.64;;;-0.29;100.00
51617;BME280;37697;52.588;13.394;2023-11-21T21:52:52;101927.08;;;-0.37;100.00
51617;BME280;37697;52.588;13.394;2023-11-21T21:58:18;101923.90;;;-0.45;100.00
51617;BME280;37697;52.588;13.394;2023-11-21T22:03:44;101935.41;;;-0.53;100.00
51617;BME280;37697;52.588;13.394;2023-11-21T22:09:10;101942.86;;;-0.59;100.00
51617;BME280;37697;52.588;13.394;2023-11-21T22:14:36;101935.30;;;-0.60;100.00
51617;BME280;37697;52.588;13.394;2023-11-21T22:20:01;101943.52;;;-0.64;100.00
51617;BME280;37697;52.588;13.394;2023-11-21T22:25:28;101950.36;;;-0.68;100.00
51617;BME280;37697;52.588;13.394;2023-11-21T22:30:53;101954.94;;;-0.72;100.00
51617;BME280;37697;52.588;13.394;2023-11-21T22:36:20;101957.67;;;-0.79;100.00
51617;BME280;37697;52.588;13.394;2023-11-21T22:41:46;101964.12;;;-0.86;100.00
51617;BME280;37697;52.588;13.394;2023-11-21T22:47:14;101971.86;;;-0.93;100.00
51617;BME280;37697;52.588;13.394;2023-11-21T22:52:36;101978.80;;;-0.99;100.00
51617;BME280;37697;52.588;13.394;2023-11-21T22:58:02;101983.38;;;-0.99;100.00
51617;BME280;37697;52.588;13.394;2023-11-21T23:03:28;101991.35;;;-0.95;100.00
51617;BME280;37697;52.588;13.394;2023-11-21T23:08:54;101995.13;;;-0.92;100.00
51617;BME280;37697;52.588;13.394;2023-11-21T23:14:19;101990.98;;;-0.91;100.00
51617;BME280;37697;52.588;13.394;2023-11-21T23:19:45;101979.20;;;-0.92;100.00
51617;BME280;37697;52.588;13.394;2023-11-21T23:25:11;101993.27;;;-0.95;100.00
51617;BME280;37697;52.588;13.394;2023-11-21T23:30:37;102001.45;;;-1.02;100.00
51617;BME280;37697;52.588;13.394;2023-11-21T23:36:03;102002.54;;;-1.11;100.00
51617;BME280;37697;52.588;13.394;2023-11-21T23:41:28;102007.77;;;-1.15;100.00
51617;BME280;37697;52.588;13.394;2023-11-21T23:46:54;102014.33;;;-1.19;100.00
51617;BME280;37697;52.588;13.394;2023-11-21T23:52:20;102034.27;;;-1.21;100.00
51617;BME280;37697;52.588;13.394;2023-11-21T23:57:46;102037.59;;;-1.22;100.00
